Time;durP1;ratioP1;P1;durP2;ratioP2;P2;SDS_P1;SDS_P2;PMS_P1;PMS_P2;Temp;Humidity;BMP_temperature;BMP_pressure;BME280_temperature;BME280_humidity;BME280_pressure;Samples;Min_cycle;Max_cycle;Signal;HPM_P1;HPM_P2
2022/01/16 00:04:06;;;;;;;36.90;20.25;;;;;;;2.39;100.00;102200.97;5075172;28;20024;-71
2022/01/16 00:06:52;;;;;;;35.28;19.38;;;;;;;2.13;100.00;102201.63;5074819;28;20123;-72
2022/01/16 00:09:38;;;;;;;33.80;18.60;;;;;;;2.32;100.00;102203.22;5075396;28;20414;-71
2022/01/16 00:12:24;;;;;;;32.72;18.80;;;;;;;2.27;100.00;102204.75;5075351;28;20020;-71
2022/01/16 00:15:10;;;;;;;34.30;19.65;;;;;;;2.19;100.00;102207.06;5059287;28;20026;-71
2022/01/16 00:18:08;;;;;;;36.55;19.65;;;;;;;2.47;100.00;102199.56;5074524;28;20024;-71
2022/01/16 00:20:55;;;;;;;34.30;19.05;;;;;;;2.60;100.00;102191.44;5073332;28;20043;-71
2022/01/16 00:23:40;;;;;;;35.42;18.90;;;;;;;2.37;100.00;102201.72;5074848;28;20428;-71
2022/01/16 00:26:26;;;;;;;35.80;18.48;;;;;;;2.50;100.00;102220.38;5075622;28;20055;-71
2022/01/16 00:29:12;;;;;;;37.22;19.00;;;;;;;2.47;100.00;102219.34;5075004;28;20036;-72
2022/01/16 00:31:58;;;;;;;34.70;18.10;;;;;;;2.25;100.00;102224.53;5059696;28;20035;-70
2022/01/16 00:34:44;;;;;;;33.35;18.15;;;;;;;2.60;100.00;102225.06;5072963;28;20059;-71
2022/01/16 00:37:30;;;;;;;33.28;17.23;;;;;;;2.29;100.00;102245.38;5074617;28;20063;-70
2022/01/16 00:40:15;;;;;;;34.50;18.27;;;;;;;2.07;100.00;102276.38;5072888;28;20377;-71
2022/01/16 00:43:03;;;;;;;35.80;17.48;;;;;;;2.17;100.00;102299.16;5059536;28;20060;-70
2022/01/16 00:45:48;;;;;;;35.67;18.08;;;;;;;2.01;100.00;102334.69;5074173;28;20078;-71
2022/01/16 00:48:34;;;;;;;31.42;17.98;;;;;;;2.08;100.00;102248.78;5074346;28;20495;-71
2022/01/16 00:51:20;;;;;;;32.78;18.17;;;;;;;2.44;100.00;102222.72;5059725;28;20103;-71
2022/01/16 00:54:10;;;;;;;36.17;18.70;;;;;;;2.00;100.00;102234.66;5059016;28;20104;-70
2022/01/16 00:56:55;;;;;;;34.13;18.17;;;;;;;2.23;100.00;102146.91;5074278;28;20064;-70
2022/01/16 00:59:41;;;;;;;36.95;18.83;;;;;;;2.24;100.00;102058.16;5074264;28;20028;-71
2022/01/16 01:02:28;;;;;;;34.20;18.25;;;;;;;2.38;100.00;102107.81;5060323;28;20020;-71
2022/01/16 01:05:13;;;;;;;32.88;17.88;;;;;;;2.27;100.00;102076.38;5059918;28;20400;-71
2022/01/16 01:08:00;;;;;;;34.10;18.77;;;;;;;2.17;100.00;102100.09;5073618;28;20062;-71
2022/01/16 01:10:49;;;;;;;32.17;18.20;;;;;;;2.17;100.00;102068.22;5074595;28;20063;-71
2022/01/16 01:13:55;;;;;;;31.33;17.35;;;;;;;1.94;100.00;102110.38;5077097;28;20265;-70
2022/01/16 01:19:36;;;;;;;30.40;15.85;;;;;;;2.12;100.00;102189.53;5078391;28;20021;-70
2022/01/16 01:22:21;;;;;;;34.40;17.80;;;;;;;2.03;100.00;102157.25;5064387;28;20025;-70
2022/01/16 01:25:09;;;;;;;31.30;16.67;;;;;;;2.23;100.00;102172.75;5078510;28;20102;-70
2022/01/16 01:27:54;;;;;;;30.35;17.33;;;;;;;2.35;100.00;102193.91;5076593;28;20074;-72
2022/01/16 01:30:44;;;;;;;32.90;17.15;;;;;;;2.24;100.00;102150.34;5063626;28;20016;-70
2022/01/16 01:33:30;;;;;;;28.63;16.63;;;;;;;1.99;100.00;102164.03;5077772;28;20033;-71
2022/01/16 01:37:08;;;;;;;35.05;17.25;;;;;;;1.99;100.00;102153.69;5078415;28;20371;-70
2022/01/16 01:39:54;;;;;;;28.52;16.35;;;;;;;2.22;100.00;102175.25;5062116;28;20449;-71
2022/01/16 01:42:47;;;;;;;29.73;16.75;;;;;;;2.09;100.00;102153.22;5078150;28;20039;-70
2022/01/16 01:51:55;;;;;;;31.08;16.85;;;;;;;2.08;100.00;102189.34;5077958;28;20031;-70
2022/01/16 01:54:41;;;;;;;32.38;17.25;;;;;;;2.16;100.00;102200.88;5078179;28;20052;-71
2022/01/16 01:57:26;;;;;;;32.83;18.35;;;;;;;2.06;100.00;102203.91;5075955;28;20483;-70
2022/01/16 02:00:17;;;;;;;33.75;17.65;;;;;;;2.10;100.00;102188.59;5077791;28;20368;-72
2022/01/16 02:05:49;;;;;;;31.48;16.63;;;;;;;1.89;100.00;102203.22;5077342;28;20028;-71
2022/01/16 02:08:36;;;;;;;37.53;18.10;;;;;;;1.86;100.00;102197.97;5077713;28;20342;-71
2022/01/16 02:11:25;;;;;;;31.25;17.55;;;;;;;2.38;100.00;102219.91;5077422;28;20034;-71
2022/01/16 02:34:52;;;;;;;33.90;16.90;;;;;;;2.30;100.00;102210.97;5076903;28;20017;-69
2022/01/16 02:37:37;;;;;;;30.10;16.60;;;;;;;2.36;100.00;102215.47;5061098;28;20016;-70
2022/01/16 02:40:26;;;;;;;28.58;16.42;;;;;;;2.14;100.00;102211.16;5076296;28;20518;-71
2022/01/16 02:43:12;;;;;;;32.72;16.92;;;;;;;2.30;100.00;102208.38;5075491;28;20028;-71
2022/01/16 03:51:17;;;;;;;31.77;17.15;;;;;;;2.03;100.00;102233.13;5478857;23;20481;-70
2022/01/16 03:54:04;;;;;;;31.08;17.73;;;;;;;2.03;100.00;102233.13;5073927;28;20052;-70
2022/01/16 04:31:59;;;;;;;32.80;17.90;;;;;;;1.95;100.00;102265.50;5314869;22;20073;-70
2022/01/16 04:34:45;;;;;;;33.53;19.05;;;;;;;1.99;100.00;102269.09;5052368;28;20048;-70
2022/01/16 04:37:31;;;;;;;33.78;18.52;;;;;;;1.93;100.00;102267.13;5041042;28;20052;-71
2022/01/16 04:40:17;;;;;;;35.33;18.45;;;;;;;2.02;100.00;102262.38;5054835;28;20103;-70
2022/01/16 04:46:07;;;;;;;36.05;19.13;;;;;;;2.30;100.00;102279.88;5054618;28;20048;-71
2022/01/16 04:48:54;;;;;;;34.72;19.02;;;;;;;2.34;100.00;102280.06;5054567;28;20032;-72
2022/01/16 04:58:02;;;;;;;34.00;17.80;;;;;;;1.87;100.00;102277.22;5747241;22;20049;-71
2022/01/16 05:00:47;;;;;;;33.10;19.25;;;;;;;2.01;100.00;102278.66;5052320;28;20024;-71
2022/01/16 05:03:34;;;;;;;36.85;19.42;;;;;;;1.75;100.00;102280.97;5052657;28;20067;-71
2022/01/16 05:06:20;;;;;;;35.30;19.83;;;;;;;1.85;100.00;102283.16;5053571;28;20031;-71
2022/01/16 05:09:06;;;;;;;39.50;20.42;;;;;;;1.89;100.00;102275.56;5052756;28;20029;-72
2022/01/16 05:11:57;;;;;;;37.17;20.05;;;;;;;1.55;100.00;102285.31;5054276;28;20191;-72
2022/01/16 05:27:58;;;;;;;39.40;21.17;;;;;;;0.57;100.00;102284.19;5032634;28;20084;-71
2022/01/16 05:30:44;;;;;;;39.22;20.95;;;;;;;0.55;100.00;102273.78;5034374;28;20052;-71
2022/01/16 05:33:30;;;;;;;35.05;19.15;;;;;;;0.37;100.00;102272.94;5031983;28;20478;-72
2022/01/16 05:36:19;;;;;;;37.33;20.20;;;;;;;0.38;100.00;102276.38;5043748;28;20441;-72
2022/01/16 05:39:05;;;;;;;40.95;21.58;;;;;;;0.50;100.00;102275.28;5053209;28;20468;-71
2022/01/16 05:41:51;;;;;;;40.88;21.17;;;;;;;0.31;100.00;102266.59;5039297;28;20036;-70
2022/01/16 05:44:36;;;;;;;43.83;22.73;;;;;;;0.26;100.00;102283.50;5053217;28;20037;-72
2022/01/16 05:58:53;;;;;;;41.22;21.08;;;;;;;0.28;100.00;102295.66;6091979;22;20047;-71
2022/01/16 06:01:38;;;;;;;49.13;23.90;;;;;;;0.38;100.00;102290.16;5036376;28;20111;-71
2022/01/16 06:04:24;;;;;;;45.45;22.55;;;;;;;0.30;100.00;102285.41;5035526;28;20123;-72
2022/01/16 06:07:10;;;;;;;43.22;22.48;;;;;;;0.49;100.00;102296.72;5025323;28;20022;-71
2022/01/16 06:09:56;;;;;;;44.13;23.95;;;;;;;0.49;100.00;102314.75;5036186;28;20036;-70
2022/01/16 06:12:42;;;;;;;50.85;25.42;;;;;;;0.36;100.00;102316.66;5037133;28;20350;-71
2022/01/16 06:15:28;;;;;;;41.40;22.65;;;;;;;0.55;100.00;102314.19;5035641;28;20030;-72
2022/01/16 06:18:14;;;;;;;42.67;21.65;;;;;;;0.44;100.00;102316.22;5036273;28;20040;-72
2022/01/16 06:21:00;;;;;;;39.70;21.00;;;;;;;0.50;100.00;102311.38;5035293;28;20029;-70
2022/01/16 06:23:45;;;;;;;40.03;20.75;;;;;;;0.49;100.00;102319.03;5035926;28;20037;-69
2022/01/16 06:26:31;;;;;;;41.85;20.15;;;;;;;0.54;100.00;102317.53;5036747;28;20025;-71
2022/01/16 06:29:18;;;;;;;38.97;20.40;;;;;;;0.56;100.00;102326.25;5036060;28;20021;-72
2022/01/16 06:32:04;;;;;;;35.90;20.27;;;;;;;0.70;100.00;102327.78;5022216;28;20105;-72
2022/01/16 06:34:50;;;;;;;42.95;22.75;;;;;;;0.39;100.00;102329.72;5037006;28;20040;-71
2022/01/16 06:37:36;;;;;;;46.28;23.17;;;;;;;0.53;100.00;102336.41;5035871;28;20044;-71
2022/01/16 06:40:47;;;;;;;39.70;20.95;;;;;;;0.45;100.00;102335.16;5035800;28;20022;-71
2022/01/16 06:43:33;;;;;;;40.45;20.52;;;;;;;0.37;100.00;102339.06;5021634;28;20048;-71
2022/01/16 06:46:19;;;;;;;40.85;20.63;;;;;;;0.57;100.00;102344.38;5036740;28;20045;-71
2022/01/16 06:49:04;;;;;;;44.63;21.88;;;;;;;0.57;100.00;102346.06;5035781;28;20044;-70
2022/01/16 06:51:51;;;;;;;40.17;20.00;;;;;;;0.64;100.00;102351.56;5036341;28;20025;-70
2022/01/16 06:54:38;;;;;;;40.47;20.45;;;;;;;0.72;100.00;102349.38;5036404;28;20047;-70
2022/01/16 06:57:24;;;;;;;43.22;20.33;;;;;;;0.73;100.00;102356.31;5036000;28;20060;-71
2022/01/16 07:21:46;;;;;;;39.67;21.40;;;;;;;2.00;100.00;102364.78;5592928;23;20130;-71
2022/01/16 07:24:32;;;;;;;36.55;21.00;;;;;;;2.11;100.00;102362.66;4957039;29;20462;-70
2022/01/16 07:27:18;;;;;;;40.40;22.40;;;;;;;2.43;100.00;102367.47;4957806;28;20065;-71
2022/01/16 07:30:05;;;;;;;39.33;21.10;;;;;;;2.53;100.00;102364.47;4958187;29;20031;-71
2022/01/16 07:32:50;;;;;;;37.92;21.20;;;;;;;2.52;100.00;102362.69;4943450;29;20110;-71
2022/01/16 07:35:37;;;;;;;38.63;21.27;;;;;;;2.70;100.00;102364.31;4956724;28;20027;-71
2022/01/16 07:42:07;;;;;;;37.33;20.13;;;;;;;2.76;100.00;102358.50;4957103;29;20039;-71
2022/01/16 07:44:52;;;;;;;36.67;20.13;;;;;;;2.86;100.00;102356.34;4957867;29;20031;-70
2022/01/16 07:47:38;;;;;;;36.25;21.05;;;;;;;2.87;100.00;102367.56;4956890;29;20371;-71
2022/01/16 07:50:25;;;;;;;35.50;20.67;;;;;;;3.54;100.00;102370.22;4958128;28;20090;-71
2022/01/16 07:53:10;;;;;;;38.72;21.20;;;;;;;3.21;100.00;102368.94;4955663;29;20356;-71
2022/01/16 07:55:56;;;;;;;40.88;21.80;;;;;;;3.07;100.00;102364.97;4956332;28;20494;-71
2022/01/16 07:58:42;;;;;;;39.72;22.35;;;;;;;3.33;100.00;102372.00;4956783;28;20444;-71
2022/01/16 08:01:27;;;;;;;38.80;21.02;;;;;;;3.63;100.00;102367.97;4957294;28;20038;-72
2022/01/16 08:04:13;;;;;;;39.80;21.63;;;;;;;4.06;100.00;102366.06;4956157;29;20042;-71
2022/01/16 08:06:59;;;;;;;41.13;21.73;;;;;;;3.73;100.00;102379.53;4942322;29;20118;-70
2022/01/16 08:09:48;;;;;;;35.88;20.40;;;;;;;3.56;100.00;102399.66;4956186;29;20114;-71
2022/01/16 08:12:34;;;;;;;39.97;21.42;;;;;;;4.38;100.00;102390.53;4943504;29;20096;-71
2022/01/16 08:15:20;;;;;;;40.53;21.10;;;;;;;3.99;100.00;102394.34;4942705;28;20067;-71
2022/01/16 08:18:05;;;;;;;37.90;21.40;;;;;;;5.15;100.00;102389.63;4957084;28;20043;-71
2022/01/16 08:20:51;;;;;;;38.75;22.08;;;;;;;4.28;100.00;102384.16;4956794;28;20027;-71
2022/01/16 08:23:40;;;;;;;38.13;22.35;;;;;;;4.50;100.00;102375.34;4956497;29;20375;-71
2022/01/16 08:26:26;;;;;;;40.42;22.27;;;;;;;4.57;100.00;102362.66;4956149;28;20031;-72
2022/01/16 08:29:12;;;;;;;39.05;21.85;;;;;;;4.87;100.00;102362.75;4942762;29;20042;-71
2022/01/16 08:31:57;;;;;;;40.05;22.58;;;;;;;5.07;100.00;102372.91;4942388;29;20050;-71
2022/01/16 08:34:43;;;;;;;34.95;20.88;;;;;;;5.07;100.00;102367.72;4955643;29;20034;-71
2022/01/16 08:37:29;;;;;;;39.38;22.38;;;;;;;5.36;100.00;102371.22;4942768;29;20381;-71
2022/01/16 08:40:15;;;;;;;40.25;22.30;;;;;;;5.26;100.00;102366.56;4955798;29;20041;-72
2022/01/16 08:43:08;;;;;;;37.53;22.05;;;;;;;5.07;100.00;102365.13;4956130;29;20095;-71
2022/01/16 08:45:54;;;;;;;41.67;22.73;;;;;;;5.69;100.00;102355.69;4942137;28;20035;-71
2022/01/16 08:48:40;;;;;;;37.40;22.45;;;;;;;6.24;100.00;102359.00;4956176;29;20031;-71
2022/01/16 08:51:29;;;;;;;42.15;22.70;;;;;;;7.14;100.00;102349.09;4955695;29;20043;-72
2022/01/16 08:54:15;;;;;;;37.55;21.95;;;;;;;6.75;100.00;102337.72;4956294;29;20043;-71
2022/01/16 08:57:05;;;;;;;34.58;22.13;;;;;;;5.40;100.00;102334.94;4941375;29;20031;-71
2022/01/16 08:59:50;;;;;;;38.25;22.45;;;;;;;6.14;100.00;102333.59;4956894;28;20034;-72
2022/01/16 09:02:36;;;;;;;36.15;22.05;;;;;;;5.22;100.00;102331.81;4942238;29;20067;-71
2022/01/16 09:05:22;;;;;;;37.92;21.58;;;;;;;5.81;100.00;102330.06;4956066;28;20063;-71
2022/01/16 09:08:08;;;;;;;38.40;20.48;;;;;;;5.79;100.00;102334.31;4949170;28;20034;-71
2022/01/16 09:10:54;;;;;;;35.00;21.05;;;;;;;5.48;100.00;102327.41;4955829;29;20024;-71
2022/01/16 09:13:40;;;;;;;34.00;20.42;;;;;;;5.50;100.00;102322.25;4942638;29;20023;-72
2022/01/16 09:16:27;;;;;;;34.33;21.00;;;;;;;6.03;100.00;102328.09;4955790;28;20038;-71
2022/01/16 09:19:13;;;;;;;33.38;19.15;;;;;;;6.52;100.00;102317.22;4956013;29;20463;-72
2022/01/16 09:21:59;;;;;;;31.02;18.50;;;;;;;6.27;100.00;102326.13;4955148;29;20453;-72
2022/01/16 09:24:45;;;;;;;31.02;18.33;;;;;;;6.23;100.00;102315.59;4956099;29;20027;-72
2022/01/16 09:27:31;;;;;;;28.33;17.75;;;;;;;5.79;100.00;102318.72;4955668;28;20114;-72
2022/01/16 09:30:18;;;;;;;31.48;17.75;;;;;;;6.22;100.00;102317.31;4942012;29;20101;-71
2022/01/16 09:33:04;;;;;;;29.50;17.33;;;;;;;6.05;100.00;102318.63;4956383;28;20019;-72
2022/01/16 09:35:50;;;;;;;33.38;18.02;;;;;;;6.36;100.00;102310.75;4959782;28;20023;-71
2022/01/16 09:38:37;;;;;;;32.53;18.13;;;;;;;5.25;100.00;102313.75;4959433;29;20031;-71
2022/01/16 09:41:23;;;;;;;34.45;17.50;;;;;;;5.01;100.00;102309.50;4959823;28;20106;-71
2022/01/16 09:44:09;;;;;;;31.45;17.88;;;;;;;4.94;100.00;102302.38;4959519;29;20035;-71
2022/01/16 09:46:54;;;;;;;32.13;18.77;;;;;;;5.52;100.00;102304.94;4945113;29;20031;-72
2022/01/16 09:49:40;;;;;;;31.90;18.45;;;;;;;5.80;100.00;102299.69;4959253;29;20027;-72
2022/01/16 09:52:26;;;;;;;30.02;18.83;;;;;;;5.75;100.00;102309.97;4958602;29;20456;-72
2022/01/16 09:55:13;;;;;;;31.83;18.50;;;;;;;5.68;100.00;102299.34;4958896;29;20066;-73
2022/01/16 09:58:00;;;;;;;27.77;17.00;;;;;;;5.85;100.00;102300.69;4959182;29;20314;-71
2022/01/16 10:00:46;;;;;;;28.60;16.85;;;;;;;5.79;100.00;102298.78;4945810;28;20028;-71
2022/01/16 10:03:32;;;;;;;28.67;16.45;;;;;;;5.62;100.00;102291.38;4959254;29;20041;-72
2022/01/16 10:06:38;;;;;;;26.20;17.02;;;;;;;5.84;100.00;102297.25;4944169;29;20035;-72
2022/01/16 10:09:23;;;;;;;27.85;16.23;;;;;;;5.38;100.00;102303.69;4946060;28;20106;-72
2022/01/16 10:12:18;;;;;;;30.33;16.90;;;;;;;5.73;100.00;102288.22;4959868;28;20027;-72
2022/01/16 10:15:20;;;;;;;31.85;16.33;;;;;;;6.22;100.00;102288.69;4958959;28;20031;-72
2022/01/16 10:18:06;;;;;;;34.90;17.60;;;;;;;6.00;100.00;102294.22;4958556;29;20038;-72
2022/01/16 10:20:52;;;;;;;28.52;17.52;;;;;;;6.07;100.00;102295.25;4958616;28;20040;-73
2022/01/16 10:23:43;;;;;;;28.88;16.42;;;;;;;5.81;100.00;102278.06;4957508;29;20050;-74
2022/01/16 10:26:29;;;;;;;27.13;15.60;;;;;;;5.82;100.00;102285.91;4958419;28;20117;-71
2022/01/16 10:29:20;;;;;;;25.17;15.35;;;;;;;5.94;100.00;102283.63;4943693;29;20098;-71
2022/01/16 10:32:16;;;;;;;28.70;15.43;;;;;;;5.42;100.00;102279.56;4944554;29;20019;-72
2022/01/16 10:35:39;;;;;;;26.10;15.40;;;;;;;6.25;100.00;102272.28;4958388;28;20349;-72
2022/01/16 10:38:30;;;;;;;28.35;16.83;;;;;;;6.06;100.00;102270.06;4881564;29;20033;-71
2022/01/16 10:41:16;;;;;;;25.75;15.98;;;;;;;6.05;100.00;102266.56;4958366;28;20571;-71
2022/01/16 10:44:02;;;;;;;29.00;16.55;;;;;;;6.48;100.00;102261.59;4958145;28;20031;-72
2022/01/16 10:46:48;;;;;;;27.60;16.23;;;;;;;6.71;100.00;102249.09;4957923;28;20042;-72
2022/01/16 10:49:33;;;;;;;26.38;15.73;;;;;;;7.02;100.00;102247.19;4959071;28;20038;-73
2022/01/16 10:52:19;;;;;;;28.98;16.75;;;;;;;6.79;100.00;102244.94;4943847;29;20030;-72
2022/01/16 10:55:07;;;;;;;24.70;15.15;;;;;;;6.68;100.00;102249.00;4957873;29;20039;-72
2022/01/16 10:58:11;;;;;;;28.73;17.08;;;;;;;6.37;100.00;102239.63;4958295;29;20082;-71
2022/01/16 11:01:00;;;;;;;26.20;15.98;;;;;;;6.04;100.00;102243.13;4944264;29;20074;-71
2022/01/16 11:03:48;;;;;;;25.88;16.15;;;;;;;6.80;100.00;102233.66;4958452;28;20134;-71
2022/01/16 11:06:34;;;;;;;28.40;16.77;;;;;;;6.65;100.00;102234.22;4958909;28;20027;-72
2022/01/16 11:09:29;;;;;;;29.00;16.17;;;;;;;6.53;100.00;102228.72;4958343;28;20035;-72
2022/01/16 11:12:15;;;;;;;29.17;17.13;;;;;;;7.21;100.00;102218.06;4958338;29;20034;-73
2022/01/16 11:15:04;;;;;;;29.77;17.45;;;;;;;7.77;100.00;102221.72;4957209;29;20190;-72
2022/01/16 11:17:50;;;;;;;29.38;16.60;;;;;;;8.16;99.33;102222.41;4946014;28;20511;-72
2022/01/16 11:20:38;;;;;;;25.17;16.15;;;;;;;7.55;100.00;102219.59;4958749;28;20035;-71
2022/01/16 11:23:43;;;;;;;27.85;16.73;;;;;;;8.11;98.46;102222.31;4958108;28;20043;-72
2022/01/16 11:26:29;;;;;;;27.35;16.80;;;;;;;7.69;100.00;102216.38;4958160;28;20468;-72
2022/01/16 11:29:15;;;;;;;27.80;16.55;;;;;;;8.25;99.52;102210.41;4943363;29;20035;-73
2022/01/16 11:32:02;;;;;;;26.75;16.23;;;;;;;8.32;96.78;102207.00;4957951;29;20444;-72
2022/01/16 11:34:48;;;;;;;29.83;17.10;;;;;;;7.56;100.00;102208.28;4957758;28;20110;-73
2022/01/16 11:37:35;;;;;;;29.25;17.20;;;;;;;8.05;98.44;102203.97;4957432;28;20038;-72
2022/01/16 11:40:47;;;;;;;28.33;16.50;;;;;;;8.28;95.24;102201.75;4957833;28;20039;-72
2022/01/16 11:43:36;;;;;;;26.83;16.08;;;;;;;8.32;94.32;102193.09;4957482;28;20065;-71
2022/01/16 11:46:25;;;;;;;25.98;15.85;;;;;;;7.86;98.10;102191.44;4957613;28;20035;-72
2022/01/16 11:50:06;;;;;;;29.77;17.90;;;;;;;8.25;95.16;102186.03;4957496;29;20035;-71
2022/01/16 11:52:53;;;;;;;27.67;17.25;;;;;;;7.90;96.71;102195.88;4957435;28;20049;-72
2022/01/16 11:55:39;;;;;;;28.90;16.40;;;;;;;7.44;95.87;102180.25;4956770;28;20451;-72
2022/01/16 11:58:25;;;;;;;27.02;16.77;;;;;;;8.11;93.04;102169.22;4956425;29;20448;-72
2022/01/16 12:01:48;;;;;;;26.98;16.77;;;;;;;8.21;91.13;102179.88;4956932;29;20033;-73
2022/01/16 12:04:34;;;;;;;26.65;15.98;;;;;;;8.07;91.40;102173.53;4957060;29;20047;-72
2022/01/16 12:07:20;;;;;;;28.90;17.13;;;;;;;7.77;92.74;102177.38;4956831;28;20035;-72
2022/01/16 12:10:06;;;;;;;26.88;16.42;;;;;;;7.96;94.83;102179.44;4956620;29;20110;-72
2022/01/16 12:12:54;;;;;;;26.02;17.30;;;;;;;8.44;93.90;102157.56;4957238;29;20027;-72
2022/01/16 12:15:40;;;;;;;27.75;16.83;;;;;;;8.53;92.73;102162.91;4956043;28;20027;-73
2022/01/16 12:18:33;;;;;;;27.33;16.95;;;;;;;8.02;95.53;102167.38;4956527;29;20104;-73
2022/01/16 12:21:54;;;;;;;25.40;15.55;;;;;;;8.17;95.12;102170.22;4955550;28;20066;-72
2022/01/16 12:24:43;;;;;;;26.05;15.48;;;;;;;8.12;95.67;102163.16;4942409;29;20361;-71
2022/01/16 12:27:30;;;;;;;26.33;15.65;;;;;;;8.33;95.22;102159.16;4942403;29;20042;-73
2022/01/16 12:30:35;;;;;;;24.23;15.77;;;;;;;8.26;96.46;102161.66;4942827;29;20081;-72
2022/01/16 12:33:27;;;;;;;23.58;15.48;;;;;;;8.03;97.21;102163.00;4943213;28;20027;-72
2022/01/16 12:36:30;;;;;;;23.80;15.35;;;;;;;8.09;96.97;102160.50;4956567;28;20329;-72
2022/01/16 12:39:19;;;;;;;24.90;15.45;;;;;;;8.39;97.05;102156.63;4956550;29;20098;-72
2022/01/16 12:42:06;;;;;;;25.92;16.17;;;;;;;8.02;98.08;102154.31;4956678;29;20038;-73
2022/01/16 12:44:51;;;;;;;26.67;15.48;;;;;;;8.42;95.51;102145.34;4956353;29;20058;-71
2022/01/16 12:47:37;;;;;;;25.83;15.60;;;;;;;8.44;94.36;102152.34;4942148;29;20364;-72
2022/01/16 12:50:23;;;;;;;24.02;15.05;;;;;;;8.15;94.38;102147.53;4955818;29;20421;-72
2022/01/16 12:53:09;;;;;;;24.05;14.63;;;;;;;8.18;94.33;102147.56;4955983;29;20038;-72
2022/01/16 12:55:55;;;;;;;26.05;15.50;;;;;;;7.53;98.19;102158.69;4956135;28;20448;-72
2022/01/16 12:58:41;;;;;;;24.08;14.63;;;;;;;7.57;100.00;102153.56;4956658;28;20058;-72
2022/01/16 13:01:27;;;;;;;24.25;15.13;;;;;;;7.48;100.00;102152.50;4941724;29;20368;-71
2022/01/16 13:04:26;;;;;;;23.23;15.10;;;;;;;7.55;100.00;102138.75;4941960;29;20035;-73
2022/01/16 13:07:17;;;;;;;25.02;14.68;;;;;;;7.67;99.48;102152.00;4956700;28;20035;-72
2022/01/16 13:10:07;;;;;;;23.02;14.48;;;;;;;7.48;100.00;102148.16;4959458;28;20589;-72
2022/01/16 13:12:53;;;;;;;26.02;15.73;;;;;;;7.78;100.00;102143.47;4959015;29;20062;-72
2022/01/16 13:15:39;;;;;;;24.98;15.15;;;;;;;7.65;100.00;102138.03;4958842;28;20034;-72
2022/01/16 13:18:25;;;;;;;24.52;15.52;;;;;;;7.69;100.00;102145.06;4933351;29;20464;-72
2022/01/16 13:21:11;;;;;;;24.25;15.20;;;;;;;7.36;100.00;102139.25;4951720;29;20353;-72
2022/01/16 13:23:56;;;;;;;26.10;16.05;;;;;;;7.50;100.00;102142.97;4960304;29;20110;-72
2022/01/16 13:26:45;;;;;;;26.23;16.00;;;;;;;7.29;100.00;102138.25;4959274;28;20038;-73
2022/01/16 13:29:32;;;;;;;25.85;16.05;;;;;;;6.84;100.00;102126.97;4959677;29;20038;-72
2022/01/16 13:32:21;;;;;;;25.05;16.02;;;;;;;7.06;100.00;102125.63;4946552;29;20114;-71
2022/01/16 13:45:47;;;;;;;28.25;17.33;;;;;;;7.20;100.00;102118.97;4958890;28;20023;-72
2022/01/16 13:48:33;;;;;;;31.88;16.65;;;;;;;6.96;100.00;102119.41;4959349;28;20412;-72
2022/01/16 13:51:20;;;;;;;30.73;16.85;;;;;;;6.88;100.00;102117.47;4957797;29;20110;-72
2022/01/16 13:54:11;;;;;;;27.00;16.13;;;;;;;7.03;100.00;102115.19;4960945;29;20031;-73
2022/01/16 13:57:00;;;;;;;29.20;16.38;;;;;;;6.74;100.00;102103.28;4958660;28;20427;-72
2022/01/16 13:59:59;;;;;;;25.60;16.40;;;;;;;6.99;100.00;102105.53;4959754;28;20042;-72
2022/01/16 14:02:45;;;;;;;31.60;18.08;;;;;;;6.90;100.00;102114.06;4958572;29;20420;-72
2022/01/16 14:05:32;;;;;;;32.00;16.80;;;;;;;6.72;100.00;102113.69;4959159;28;20039;-72
2022/01/16 14:08:30;;;;;;;28.40;16.55;;;;;;;6.75;100.00;102105.91;4959074;29;20149;-72
2022/01/16 14:11:20;;;;;;;28.73;16.02;;;;;;;6.85;100.00;102105.28;4959218;28;20453;-72
2022/01/16 14:14:06;;;;;;;26.90;15.63;;;;;;;5.95;100.00;102090.28;4958587;29;20045;-71
2022/01/16 14:22:35;;;;;;;26.35;15.70;;;;;;;6.79;100.00;102097.31;4958536;29;20110;-71
2022/01/16 14:25:21;;;;;;;25.33;16.55;;;;;;;6.71;100.00;102103.25;4960435;28;20044;-72
2022/01/16 14:28:07;;;;;;;28.42;16.33;;;;;;;6.99;100.00;102100.34;4945873;28;20035;-73
2022/01/16 14:30:52;;;;;;;29.98;17.65;;;;;;;7.01;100.00;102094.31;4946038;28;20034;-73
2022/01/16 14:33:38;;;;;;;26.60;16.27;;;;;;;6.90;100.00;102092.31;4957722;29;20110;-72
2022/01/16 14:36:24;;;;;;;28.20;17.00;;;;;;;6.83;100.00;102098.28;4957631;28;20046;-72
2022/01/16 14:39:13;;;;;;;28.00;17.27;;;;;;;6.74;100.00;102092.88;4959824;28;20429;-73
2022/01/16 14:42:00;;;;;;;26.10;16.80;;;;;;;6.51;100.00;102096.75;4943692;29;20051;-72
2022/01/16 14:44:48;;;;;;;27.17;16.85;;;;;;;6.69;100.00;102089.31;4958909;29;20070;-71
2022/01/16 14:47:34;;;;;;;28.35;16.95;;;;;;;6.45;100.00;102086.19;4957643;28;20110;-72
2022/01/16 14:50:24;;;;;;;28.60;17.05;;;;;;;6.50;100.00;102072.44;4958487;29;20027;-72
2022/01/16 14:53:10;;;;;;;28.55;16.90;;;;;;;6.72;100.00;102071.13;4958735;28;20031;-71
2022/01/16 14:55:56;;;;;;;28.95;17.73;;;;;;;6.64;100.00;102071.00;4958381;28;20483;-71
2022/01/16 14:58:43;;;;;;;27.10;16.67;;;;;;;6.51;100.00;102068.13;4943401;29;20166;-71
2022/01/16 15:01:29;;;;;;;29.42;17.42;;;;;;;6.65;100.00;102058.84;4958763;28;20356;-71
2022/01/16 15:04:15;;;;;;;31.73;18.27;;;;;;;6.89;100.00;102067.13;4956787;29;20034;-70
2022/01/16 15:07:02;;;;;;;32.78;18.35;;;;;;;6.62;100.00;102064.88;4958043;28;20035;-72
2022/01/16 15:09:48;;;;;;;36.22;20.25;;;;;;;6.16;100.00;102056.06;4958486;28;20042;-71
2022/01/16 15:12:34;;;;;;;34.72;19.52;;;;;;;6.48;100.00;102047.22;4943701;29;20030;-71
2022/01/16 15:20:32;;;;;;;37.05;22.02;;;;;;;6.41;100.00;102043.63;5423614;23;20468;-69
2022/01/16 15:23:18;;;;;;;39.00;22.33;;;;;;;6.45;100.00;102045.44;4958046;28;20031;-72
2022/01/16 15:26:04;;;;;;;39.30;22.60;;;;;;;6.25;100.00;102030.25;4957793;28;20083;-71
2022/01/16 15:28:50;;;;;;;37.42;21.65;;;;;;;6.46;100.00;102031.56;4957976;28;20031;-72
2022/01/16 15:31:35;;;;;;;46.20;27.63;;;;;;;6.15;100.00;102033.50;4956482;28;20385;-72
2022/01/16 15:34:22;;;;;;;40.63;24.60;;;;;;;6.35;100.00;102030.47;4958027;28;20448;-70
2022/01/16 15:37:07;;;;;;;40.38;25.38;;;;;;;6.35;100.00;102032.22;4950127;28;20202;-71
2022/01/16 15:39:53;;;;;;;45.08;25.70;;;;;;;6.47;100.00;102029.84;4957837;28;20113;-71
2022/01/16 15:42:44;;;;;;;46.35;26.20;;;;;;;6.45;100.00;102026.31;4957120;29;20042;-72
2022/01/16 15:45:30;;;;;;;37.70;23.88;;;;;;;6.46;100.00;102022.88;4957083;28;20412;-71
2022/01/16 15:48:17;;;;;;;40.47;25.02;;;;;;;6.32;100.00;102026.94;4957364;29;20031;-70
2022/01/16 15:51:04;;;;;;;43.55;25.73;;;;;;;6.41;100.00;102030.59;4943455;29;20027;-71
2022/01/16 15:53:49;;;;;;;44.25;25.88;;;;;;;6.34;100.00;102033.91;4957198;28;20097;-71
2022/01/16 15:56:35;;;;;;;44.75;25.90;;;;;;;6.26;100.00;102030.28;4957490;28;20059;-71
2022/01/16 15:59:21;;;;;;;43.85;25.55;;;;;;;6.45;100.00;102024.59;4956367;29;20033;-70
2022/01/16 16:13:37;;;;;;;48.10;28.20;;;;;;;6.22;100.00;102015.44;5404085;23;20055;-71
2022/01/16 16:16:22;;;;;;;52.25;32.47;;;;;;;6.09;100.00;102012.56;4955473;28;20401;-70
2022/01/16 16:19:08;;;;;;;64.13;36.85;;;;;;;5.43;100.00;102017.09;4948503;29;20113;-70
2022/01/16 16:21:55;;;;;;;74.18;39.72;;;;;;;5.48;100.00;102018.09;4956710;29;20050;-70
2022/01/16 16:24:41;;;;;;;91.70;43.45;;;;;;;5.55;100.00;102022.59;4959397;29;20027;-70
2022/01/16 16:27:29;;;;;;;93.80;42.90;;;;;;;5.74;100.00;102005.69;4956926;28;20402;-70
2022/01/16 16:30:16;;;;;;;98.50;44.70;;;;;;;5.74;100.00;102008.28;4956781;29;20078;-71
2022/01/16 17:03:15;;;;;;;100.90;50.95;;;;;;;4.97;100.00;102014.19;5145441;23;20055;-71